sensor_id;sensor_type;location;lat;lon;timestamp;temperature;humidity
42965;DHT22;28604;51.204;22.552;2023-07-31T00:00:53;20.30;86.00
42965;DHT22;28604;51.204;22.552;2023-07-31T00:03:26;20.30;86.40
42965;DHT22;28604;51.204;22.552;2023-07-31T00:05:52;20.30;86.50
42965;DHT22;28604;51.204;22.552;2023-07-31T00:08:18;20.20;86.40
42965;DHT22;28604;51.204;22.552;2023-07-31T00:10:44;20.20;86.20
42965;DHT22;28604;51.204;22.552;2023-07-31T00:13:10;20.30;86.30
42965;DHT22;28604;51.204;22.552;2023-07-31T00:15:35;20.30;86.40
42965;DHT22;28604;51.204;22.552;2023-07-31T00:18:02;20.30;86.30
42965;DHT22;28604;51.204;22.552;2023-07-31T00:20:30;20.30;86.30
42965;DHT22;28604;51.204;22.552;2023-07-31T00:22:56;20.20;86.30
42965;DHT22;28604;51.204;22.552;2023-07-31T00:25:22;20.20;86.70
42965;DHT22;28604;51.204;22.552;2023-07-31T00:27:48;20.20;86.60
42965;DHT22;28604;51.204;22.552;2023-07-31T00:30:13;20.30;86.90
42965;DHT22;28604;51.204;22.552;2023-07-31T00:32:39;20.20;86.60
42965;DHT22;28604;51.204;22.552;2023-07-31T00:35:05;20.20;86.40
42965;DHT22;28604;51.204;22.552;2023-07-31T00:37:32;20.20;86.60
42965;DHT22;28604;51.204;22.552;2023-07-31T00:39:57;20.20;86.50
42965;DHT22;28604;51.204;22.552;2023-07-31T00:42:24;20.30;86.30
42965;DHT22;28604;51.204;22.552;2023-07-31T00:44:50;20.20;86.10
42965;DHT22;28604;51.204;22.552;2023-07-31T00:47:16;20.30;86.00
42965;DHT22;28604;51.204;22.552;2023-07-31T00:49:42;20.30;86.00
42965;DHT22;28604;51.204;22.552;2023-07-31T00:52:09;20.30;86.00
42965;DHT22;28604;51.204;22.552;2023-07-31T00:54:35;20.20;86.20
42965;DHT22;28604;51.204;22.552;2023-07-31T00:57:01;20.30;86.30
42965;DHT22;28604;51.204;22.552;2023-07-31T00:59:28;20.30;85.80
42965;DHT22;28604;51.204;22.552;2023-07-31T01:01:54;20.30;86.00
42965;DHT22;28604;51.204;22.552;2023-07-31T01:04:21;20.20;85.70
42965;DHT22;28604;51.204;22.552;2023-07-31T01:12:00;20.30;86.30
42965;DHT22;28604;51.204;22.552;2023-07-31T01:14:27;20.30;86.00
42965;DHT22;28604;51.204;22.552;2023-07-31T01:16:54;20.30;86.30
42965;DHT22;28604;51.204;22.552;2023-07-31T01:19:23;20.30;86.30
42965;DHT22;28604;51.204;22.552;2023-07-31T01:28:04;20.30;86.30
42965;DHT22;28604;51.204;22.552;2023-07-31T01:30:33;20.20;86.00
42965;DHT22;28604;51.204;22.552;2023-07-31T01:33:02;20.30;86.00
42965;DHT22;28604;51.204;22.552;2023-07-31T01:35:36;20.30;85.90
42965;DHT22;28604;51.204;22.552;2023-07-31T01:38:03;20.30;86.00
42965;DHT22;28604;51.204;22.552;2023-07-31T01:40:28;20.30;86.30
42965;DHT22;28604;51.204;22.552;2023-07-31T01:42:55;20.30;85.80
42965;DHT22;28604;51.204;22.552;2023-07-31T01:45:20;20.30;85.90
42965;DHT22;28604;51.204;22.552;2023-07-31T01:47:46;20.30;86.00
42965;DHT22;28604;51.204;22.552;2023-07-31T01:50:12;20.30;86.20
42965;DHT22;28604;51.204;22.552;2023-07-31T01:52:38;20.20;86.30
42965;DHT22;28604;51.204;22.552;2023-07-31T01:55:04;20.30;86.30
42965;DHT22;28604;51.204;22.552;2023-07-31T01:57:30;20.30;85.90
42965;DHT22;28604;51.204;22.552;2023-07-31T01:59:56;20.30;85.80
42965;DHT22;28604;51.204;22.552;2023-07-31T02:02:22;20.30;85.90
42965;DHT22;28604;51.204;22.552;2023-07-31T02:04:49;20.30;86.20
42965;DHT22;28604;51.204;22.552;2023-07-31T02:07:15;20.30;86.00
42965;DHT22;28604;51.204;22.552;2023-07-31T02:09:40;20.20;86.20
42965;DHT22;28604;51.204;22.552;2023-07-31T02:12:07;20.20;86.30
42965;DHT22;28604;51.204;22.552;2023-07-31T02:14:34;20.20;86.20
42965;DHT22;28604;51.204;22.552;2023-07-31T02:17:01;20.20;86.20
42965;DHT22;28604;51.204;22.552;2023-07-31T02:19:26;20.20;86.20
42965;DHT22;28604;51.204;22.552;2023-07-31T02:21:53;20.20;86.10
42965;DHT22;28604;51.204;22.552;2023-07-31T02:24:18;20.20;86.10
42965;DHT22;28604;51.204;22.552;2023-07-31T02:26:44;20.20;86.10
42965;DHT22;28604;51.204;22.552;2023-07-31T02:29:10;20.30;86.10
42965;DHT22;28604;51.204;22.552;2023-07-31T02:31:36;20.30;86.20
42965;DHT22;28604;51.204;22.552;2023-07-31T02:34:02;20.20;86.20
42965;DHT22;28604;51.204;22.552;2023-07-31T02:36:28;20.20;86.00
42965;DHT22;28604;51.204;22.552;2023-07-31T02:38:55;20.20;86.00
42965;DHT22;28604;51.204;22.552;2023-07-31T02:41:21;20.20;86.20
42965;DHT22;28604;51.204;22.552;2023-07-31T02:43:47;20.20;86.10
42965;DHT22;28604;51.204;22.552;2023-07-31T02:46:13;20.10;86.10
42965;DHT22;28604;51.204;22.552;2023-07-31T02:48:40;20.20;86.10
42965;DHT22;28604;51.204;22.552;2023-07-31T02:51:06;20.20;86.00
42965;DHT22;28604;51.204;22.552;2023-07-31T02:53:32;20.20;85.90
42965;DHT22;28604;51.204;22.552;2023-07-31T02:55:58;20.10;86.00
42965;DHT22;28604;51.204;22.552;2023-07-31T02:58:25;20.20;86.00
42965;DHT22;28604;51.204;22.552;2023-07-31T03:00:51;20.10;85.70
42965;DHT22;28604;51.204;22.552;2023-07-31T03:03:16;20.10;85.60
42965;DHT22;28604;51.204;22.552;2023-07-31T03:05:43;20.20;85.70
42965;DHT22;28604;51.204;22.552;2023-07-31T03:08:09;20.10;85.60
42965;DHT22;28604;51.204;22.552;2023-07-31T03:10:35;20.10;85.30
42965;DHT22;28604;51.204;22.552;2023-07-31T03:13:00;20.10;85.50
42965;DHT22;28604;51.204;22.552;2023-07-31T03:15:26;20.10;85.60
42965;DHT22;28604;51.204;22.552;2023-07-31T03:17:52;20.10;85.70
42965;DHT22;28604;51.204;22.552;2023-07-31T03:20:18;20.00;85.70
42965;DHT22;28604;51.204;22.552;2023-07-31T03:22:44;20.00;85.90
42965;DHT22;28604;51.204;22.552;2023-07-31T03:25:11;20.10;86.00
42965;DHT22;28604;51.204;22.552;2023-07-31T03:27:37;20.00;85.80
42965;DHT22;28604;51.204;22.552;2023-07-31T03:30:03;20.00;86.40
42965;DHT22;28604;51.204;22.552;2023-07-31T03:32:29;20.00;86.10
42965;DHT22;28604;51.204;22.552;2023-07-31T03:34:55;20.00;86.00
42965;DHT22;28604;51.204;22.552;2023-07-31T03:37:21;20.00;86.10
42965;DHT22;28604;51.204;22.552;2023-07-31T03:39:47;20.10;86.10
42965;DHT22;28604;51.204;22.552;2023-07-31T03:42:13;20.10;86.00
42965;DHT22;28604;51.204;22.552;2023-07-31T03:44:42;20.10;85.90
42965;DHT22;28604;51.204;22.552;2023-07-31T03:47:09;20.10;86.20
42965;DHT22;28604;51.204;22.552;2023-07-31T03:49:37;20.10;86.00
42965;DHT22;28604;51.204;22.552;2023-07-31T03:52:04;20.10;85.80
42965;DHT22;28604;51.204;22.552;2023-07-31T03:54:30;20.10;85.60
42965;DHT22;28604;51.204;22.552;2023-07-31T03:56:55;20.10;85.80
42965;DHT22;28604;51.204;22.552;2023-07-31T03:59:21;20.10;86.00
42965;DHT22;28604;51.204;22.552;2023-07-31T04:01:47;20.10;85.90
42965;DHT22;28604;51.204;22.552;2023-07-31T04:04:13;20.10;85.90
42965;DHT22;28604;51.204;22.552;2023-07-31T04:06:39;20.20;86.00
42965;DHT22;28604;51.204;22.552;2023-07-31T04:09:05;20.10;85.90
42965;DHT22;28604;51.204;22.552;2023-07-31T04:11:31;20.20;85.60
42965;DHT22;28604;51.204;22.552;2023-07-31T04:13:57;20.20;85.40
42965;DHT22;28604;51.204;22.552;2023-07-31T04:16:23;20.10;85.50
42965;DHT22;28604;51.204;22.552;2023-07-31T04:18:49;20.10;85.30
42965;DHT22;28604;51.204;22.552;2023-07-31T04:21:15;20.20;85.10
42965;DHT22;28604;51.204;22.552;2023-07-31T04:26:23;20.20;85.10
42965;DHT22;28604;51.204;22.552;2023-07-31T04:28:50;20.20;85.30
42965;DHT22;28604;51.204;22.552;2023-07-31T04:31:15;20.20;85.20
42965;DHT22;28604;51.204;22.552;2023-07-31T04:33:41;20.20;85.20
42965;DHT22;28604;51.204;22.552;2023-07-31T04:36:07;20.20;85.40
42965;DHT22;28604;51.204;22.552;2023-07-31T04:38:33;20.20;85.40
42965;DHT22;28604;51.204;22.552;2023-07-31T04:40:59;20.20;85.50
42965;DHT22;28604;51.204;22.552;2023-07-31T04:43:25;20.30;85.60
42965;DHT22;28604;51.204;22.552;2023-07-31T04:45:51;20.30;85.70
42965;DHT22;28604;51.204;22.552;2023-07-31T04:48:18;20.30;85.70
42965;DHT22;28604;51.204;22.552;2023-07-31T04:50:44;20.30;85.60
42965;DHT22;28604;51.204;22.552;2023-07-31T04:53:14;20.40;85.60
42965;DHT22;28604;51.204;22.552;2023-07-31T04:55:40;20.40;85.50
42965;DHT22;28604;51.204;22.552;2023-07-31T04:58:06;20.50;85.20
42965;DHT22;28604;51.204;22.552;2023-07-31T05:00:32;20.60;85.20
42965;DHT22;28604;51.204;22.552;2023-07-31T05:02:58;20.60;85.10
42965;DHT22;28604;51.204;22.552;2023-07-31T05:05:23;20.60;85.00
42965;DHT22;28604;51.204;22.552;2023-07-31T05:07:50;20.70;84.90
42965;DHT22;28604;51.204;22.552;2023-07-31T05:10:15;20.70;85.00
42965;DHT22;28604;51.204;22.552;2023-07-31T05:12:42;20.80;84.80
42965;DHT22;28604;51.204;22.552;2023-07-31T05:15:08;20.80;84.40
42965;DHT22;28604;51.204;22.552;2023-07-31T05:17:34;20.90;84.60
42965;DHT22;28604;51.204;22.552;2023-07-31T05:20:00;21.00;84.60
42965;DHT22;28604;51.204;22.552;2023-07-31T05:22:26;21.10;84.70
42965;DHT22;28604;51.204;22.552;2023-07-31T05:24:51;21.20;83.90
42965;DHT22;28604;51.204;22.552;2023-07-31T05:27:19;21.30;83.60
42965;DHT22;28604;51.204;22.552;2023-07-31T05:29:45;21.40;83.60
42965;DHT22;28604;51.204;22.552;2023-07-31T05:32:12;21.50;83.20
42965;DHT22;28604;51.204;22.552;2023-07-31T05:34:37;21.60;83.00
42965;DHT22;28604;51.204;22.552;2023-07-31T05:37:04;21.60;82.80
42965;DHT22;28604;51.204;22.552;2023-07-31T05:39:30;21.80;82.70
42965;DHT22;28604;51.204;22.552;2023-07-31T05:41:56;21.90;82.30
42965;DHT22;28604;51.204;22.552;2023-07-31T05:44:22;21.90;81.90
42965;DHT22;28604;51.204;22.552;2023-07-31T05:46:48;22.00;81.70
42965;DHT22;28604;51.204;22.552;2023-07-31T05:49:14;22.10;81.40
42965;DHT22;28604;51.204;22.552;2023-07-31T05:51:40;22.10;80.70
42965;DHT22;28604;51.204;22.552;2023-07-31T05:54:06;22.20;80.70
42965;DHT22;28604;51.204;22.552;2023-07-31T05:56:32;22.20;80.50
42965;DHT22;28604;51.204;22.552;2023-07-31T05:58:59;22.30;80.00
42965;DHT22;28604;51.204;22.552;2023-07-31T06:01:25;22.30;79.70
42965;DHT22;28604;51.204;22.552;2023-07-31T06:03:51;22.40;79.70
42965;DHT22;28604;51.204;22.552;2023-07-31T06:06:17;22.40;79.60
42965;DHT22;28604;51.204;22.552;2023-07-31T06:08:43;22.40;79.30
42965;DHT22;28604;51.204;22.552;2023-07-31T06:11:09;22.40;78.90
42965;DHT22;28604;51.204;22.552;2023-07-31T06:13:35;22.50;78.80
42965;DHT22;28604;51.204;22.552;2023-07-31T06:16:01;22.60;78.60
42965;DHT22;28604;51.204;22.552;2023-07-31T06:18:32;22.60;78.40
42965;DHT22;28604;51.204;22.552;2023-07-31T06:21:01;22.70;78.50
42965;DHT22;28604;51.204;22.552;2023-07-31T06:23:26;22.80;78.30
42965;DHT22;28604;51.204;22.552;2023-07-31T06:25:53;22.80;78.00
42965;DHT22;28604;51.204;22.552;2023-07-31T06:28:18;22.90;77.60
42965;DHT22;28604;51.204;22.552;2023-07-31T06:30:45;23.00;77.40
42965;DHT22;28604;51.204;22.552;2023-07-31T06:33:10;23.20;77.00
42965;DHT22;28604;51.204;22.552;2023-07-31T06:35:36;23.20;76.90
42965;DHT22;28604;51.204;22.552;2023-07-31T06:38:02;23.40;76.40
42965;DHT22;28604;51.204;22.552;2023-07-31T06:40:29;23.50;76.50
42965;DHT22;28604;51.204;22.552;2023-07-31T06:42:55;23.70;76.20
42965;DHT22;28604;51.204;22.552;2023-07-31T06:45:21;23.90;75.70
42965;DHT22;28604;51.204;22.552;2023-07-31T06:47:47;24.10;75.10
42965;DHT22;28604;51.204;22.552;2023-07-31T06:50:13;24.30;74.60
42965;DHT22;28604;51.204;22.552;2023-07-31T06:52:42;24.40;74.00
42965;DHT22;28604;51.204;22.552;2023-07-31T06:55:19;24.60;73.70
42965;DHT22;28604;51.204;22.552;2023-07-31T06:57:46;24.80;73.10
42965;DHT22;28604;51.204;22.552;2023-07-31T07:00:12;25.00;73.00
42965;DHT22;28604;51.204;22.552;2023-07-31T07:02:39;25.30;72.80
42965;DHT22;28604;51.204;22.552;2023-07-31T07:05:06;25.80;72.50
42965;DHT22;28604;51.204;22.552;2023-07-31T07:07:32;26.30;71.10
42965;DHT22;28604;51.204;22.552;2023-07-31T07:09:59;26.70;69.50
42965;DHT22;28604;51.204;22.552;2023-07-31T07:12:30;27.00;67.60
42965;DHT22;28604;51.204;22.552;2023-07-31T07:14:56;27.10;66.90
42965;DHT22;28604;51.204;22.552;2023-07-31T07:17:29;27.30;66.70
42965;DHT22;28604;51.204;22.552;2023-07-31T07:19:59;27.40;66.90
42965;DHT22;28604;51.204;22.552;2023-07-31T07:22:26;27.80;65.70
42965;DHT22;28604;51.204;22.552;2023-07-31T07:25:06;28.30;64.80
42965;DHT22;28604;51.204;22.552;2023-07-31T07:27:33;28.80;64.20
42965;DHT22;28604;51.204;22.552;2023-07-31T07:29:59;29.30;63.10
42965;DHT22;28604;51.204;22.552;2023-07-31T07:32:25;30.00;61.60
42965;DHT22;28604;51.204;22.552;2023-07-31T07:34:51;30.50;60.40
42965;DHT22;28604;51.204;22.552;2023-07-31T07:37:17;31.00;59.30
42965;DHT22;28604;51.204;22.552;2023-07-31T07:39:43;31.50;59.00
42965;DHT22;28604;51.204;22.552;2023-07-31T07:42:10;31.80;57.30
42965;DHT22;28604;51.204;22.552;2023-07-31T07:44:36;32.00;55.90
42965;DHT22;28604;51.204;22.552;2023-07-31T07:47:02;31.80;56.00
42965;DHT22;28604;51.204;22.552;2023-07-31T07:49:28;31.60;56.20
42965;DHT22;28604;51.204;22.552;2023-07-31T07:51:56;31.50;56.00
42965;DHT22;28604;51.204;22.552;2023-07-31T07:54:24;31.30;56.50
42965;DHT22;28604;51.204;22.552;2023-07-31T07:56:51;31.10;56.00
42965;DHT22;28604;51.204;22.552;2023-07-31T07:59:16;31.00;56.10
42965;DHT22;28604;51.204;22.552;2023-07-31T08:01:43;30.80;57.70
42965;DHT22;28604;51.204;22.552;2023-07-31T08:04:08;30.60;57.10
42965;DHT22;28604;51.204;22.552;2023-07-31T08:06:34;30.70;56.60
42965;DHT22;28604;51.204;22.552;2023-07-31T08:09:00;30.60;56.80
42965;DHT22;28604;51.204;22.552;2023-07-31T08:11:35;30.70;56.80
42965;DHT22;28604;51.204;22.552;2023-07-31T08:14:01;30.90;57.00
42965;DHT22;28604;51.204;22.552;2023-07-31T08:16:27;31.30;56.70
42965;DHT22;28604;51.204;22.552;2023-07-31T08:18:53;31.80;56.20
42965;DHT22;28604;51.204;22.552;2023-07-31T08:21:19;32.20;54.30
42965;DHT22;28604;51.204;22.552;2023-07-31T08:23:45;32.60;53.60
42965;DHT22;28604;51.204;22.552;2023-07-31T08:26:15;32.80;53.10
42965;DHT22;28604;51.204;22.552;2023-07-31T08:28:41;33.00;52.70
42965;DHT22;28604;51.204;22.552;2023-07-31T08:31:07;33.20;52.80
42965;DHT22;28604;51.204;22.552;2023-07-31T08:33:33;33.50;52.70
42965;DHT22;28604;51.204;22.552;2023-07-31T08:35:59;34.00;51.10
42965;DHT22;28604;51.204;22.552;2023-07-31T08:38:26;34.60;50.30
42965;DHT22;28604;51.204;22.552;2023-07-31T08:40:53;35.00;49.60
42965;DHT22;28604;51.204;22.552;2023-07-31T08:43:20;35.40;49.30
42965;DHT22;28604;51.204;22.552;2023-07-31T08:45:48;35.80;48.70
42965;DHT22;28604;51.204;22.552;2023-07-31T08:48:15;36.00;48.60
42965;DHT22;28604;51.204;22.552;2023-07-31T08:50:43;36.20;48.60
42965;DHT22;28604;51.204;22.552;2023-07-31T08:53:09;36.20;47.70
42965;DHT22;28604;51.204;22.552;2023-07-31T08:55:36;36.10;46.60
42965;DHT22;28604;51.204;22.552;2023-07-31T08:58:04;36.00;47.70
42965;DHT22;28604;51.204;22.552;2023-07-31T09:00:32;36.00;48.20
42965;DHT22;28604;51.204;22.552;2023-07-31T09:03:02;36.10;48.10
42965;DHT22;28604;51.204;22.552;2023-07-31T09:05:30;35.90;47.80
42965;DHT22;28604;51.204;22.552;2023-07-31T09:07:57;35.90;48.50
42965;DHT22;28604;51.204;22.552;2023-07-31T09:10:24;36.00;48.30
42965;DHT22;28604;51.204;22.552;2023-07-31T09:12:51;36.30;47.40
42965;DHT22;28604;51.204;22.552;2023-07-31T09:15:18;36.60;46.30
42965;DHT22;28604;51.204;22.552;2023-07-31T09:17:44;36.70;46.40
42965;DHT22;28604;51.204;22.552;2023-07-31T09:20:20;36.90;46.10
42965;DHT22;28604;51.204;22.552;2023-07-31T09:22:48;37.00;47.00
42965;DHT22;28604;51.204;22.552;2023-07-31T09:25:24;37.20;46.40
42965;DHT22;28604;51.204;22.552;2023-07-31T09:27:59;37.30;46.90
42965;DHT22;28604;51.204;22.552;2023-07-31T09:30:26;36.80;48.20
42965;DHT22;28604;51.204;22.552;2023-07-31T09:33:01;36.30;49.10
42965;DHT22;28604;51.204;22.552;2023-07-31T09:35:32;35.70;50.40
42965;DHT22;28604;51.204;22.552;2023-07-31T09:38:04;35.20;50.70
42965;DHT22;28604;51.204;22.552;2023-07-31T09:40:33;34.80;51.40
42965;DHT22;28604;51.204;22.552;2023-07-31T09:43:01;34.50;51.30
42965;DHT22;28604;51.204;22.552;2023-07-31T09:45:27;34.30;51.60
42965;DHT22;28604;51.204;22.552;2023-07-31T09:47:55;33.90;52.10
42965;DHT22;28604;51.204;22.552;2023-07-31T09:50:23;33.60;53.10
42965;DHT22;28604;51.204;22.552;2023-07-31T09:52:51;33.30;52.70
42965;DHT22;28604;51.204;22.552;2023-07-31T09:55:18;33.10;52.90
42965;DHT22;28604;51.204;22.552;2023-07-31T09:57:46;32.80;52.20
42965;DHT22;28604;51.204;22.552;2023-07-31T10:00:15;32.60;51.10
42965;DHT22;28604;51.204;22.552;2023-07-31T10:02:45;32.50;51.40
42965;DHT22;28604;51.204;22.552;2023-07-31T10:05:19;32.60;51.20
42965;DHT22;28604;51.204;22.552;2023-07-31T10:07:54;32.70;51.40
42965;DHT22;28604;51.204;22.552;2023-07-31T10:10:22;33.00;51.70
42965;DHT22;28604;51.204;22.552;2023-07-31T10:12:49;33.20;51.30
42965;DHT22;28604;51.204;22.552;2023-07-31T10:15:16;33.40;50.60
42965;DHT22;28604;51.204;22.552;2023-07-31T10:17:43;33.50;50.40
42965;DHT22;28604;51.204;22.552;2023-07-31T10:20:10;33.30;50.70
42965;DHT22;28604;51.204;22.552;2023-07-31T10:22:36;33.20;50.60
42965;DHT22;28604;51.204;22.552;2023-07-31T10:25:03;33.20;50.80
42965;DHT22;28604;51.204;22.552;2023-07-31T10:27:29;33.10;50.80
42965;DHT22;28604;51.204;22.552;2023-07-31T10:29:56;33.10;51.00
42965;DHT22;28604;51.204;22.552;2023-07-31T10:32:23;33.20;51.10
42965;DHT22;28604;51.204;22.552;2023-07-31T10:34:51;33.10;51.30
42965;DHT22;28604;51.204;22.552;2023-07-31T10:37:38;33.00;51.90
42965;DHT22;28604;51.204;22.552;2023-07-31T10:40:16;33.10;52.20
42965;DHT22;28604;51.204;22.552;2023-07-31T10:42:48;33.00;51.20
42965;DHT22;28604;51.204;22.552;2023-07-31T10:45:33;33.00;51.50
42965;DHT22;28604;51.204;22.552;2023-07-31T10:48:07;33.10;51.60
42965;DHT22;28604;51.204;22.552;2023-07-31T10:50:38;33.20;51.40
42965;DHT22;28604;51.204;22.552;2023-07-31T10:53:04;33.20;52.00
42965;DHT22;28604;51.204;22.552;2023-07-31T10:55:42;33.20;51.40
42965;DHT22;28604;51.204;22.552;2023-07-31T10:58:13;33.40;51.00
42965;DHT22;28604;51.204;22.552;2023-07-31T11:00:44;33.40;50.90
42965;DHT22;28604;51.204;22.552;2023-07-31T11:03:17;33.60;51.20
42965;DHT22;28604;51.204;22.552;2023-07-31T11:05:59;33.70;50.70
42965;DHT22;28604;51.204;22.552;2023-07-31T11:08:31;33.70;51.20
42965;DHT22;28604;51.204;22.552;2023-07-31T11:13:30;33.80;50.20
42965;DHT22;28604;51.204;22.552;2023-07-31T11:15:56;33.90;49.90
42965;DHT22;28604;51.204;22.552;2023-07-31T11:18:22;34.10;49.40
42965;DHT22;28604;51.204;22.552;2023-07-31T11:20:48;34.00;50.00
42965;DHT22;28604;51.204;22.552;2023-07-31T11:23:16;34.00;49.70
42965;DHT22;28604;51.204;22.552;2023-07-31T11:25:43;34.10;49.70
42965;DHT22;28604;51.204;22.552;2023-07-31T11:28:13;34.30;50.30
42965;DHT22;28604;51.204;22.552;2023-07-31T11:30:41;34.50;49.40
42965;DHT22;28604;51.204;22.552;2023-07-31T11:33:09;34.50;48.00
42965;DHT22;28604;51.204;22.552;2023-07-31T11:35:47;34.50;47.90
42965;DHT22;28604;51.204;22.552;2023-07-31T11:38:27;34.50;47.80
42965;DHT22;28604;51.204;22.552;2023-07-31T11:40:54;34.40;48.30
42965;DHT22;28604;51.204;22.552;2023-07-31T11:43:20;34.30;48.00
42965;DHT22;28604;51.204;22.552;2023-07-31T11:45:49;34.30;48.20
42965;DHT22;28604;51.204;22.552;2023-07-31T11:48:19;34.20;48.60
42965;DHT22;28604;51.204;22.552;2023-07-31T11:50:46;34.20;49.10
42965;DHT22;28604;51.204;22.552;2023-07-31T11:53:13;34.10;48.60
42965;DHT22;28604;51.204;22.552;2023-07-31T11:55:39;34.10;47.90
42965;DHT22;28604;51.204;22.552;2023-07-31T11:58:06;34.10;48.00
42965;DHT22;28604;51.204;22.552;2023-07-31T12:00:32;33.90;48.40
42965;DHT22;28604;51.204;22.552;2023-07-31T12:02:58;34.00;47.80
42965;DHT22;28604;51.204;22.552;2023-07-31T12:05:24;34.00;48.70
42965;DHT22;28604;51.204;22.552;2023-07-31T12:07:54;33.90;48.40
42965;DHT22;28604;51.204;22.552;2023-07-31T12:10:30;33.90;48.90
42965;DHT22;28604;51.204;22.552;2023-07-31T12:13:08;33.90;49.60
42965;DHT22;28604;51.204;22.552;2023-07-31T12:15:39;33.70;49.80
42965;DHT22;28604;51.204;22.552;2023-07-31T12:18:19;33.70;49.50
42965;DHT22;28604;51.204;22.552;2023-07-31T12:20:47;33.60;49.00
42965;DHT22;28604;51.204;22.552;2023-07-31T12:23:18;33.40;49.20
42965;DHT22;28604;51.204;22.552;2023-07-31T12:25:45;33.20;49.40
42965;DHT22;28604;51.204;22.552;2023-07-31T12:28:11;33.20;49.50
42965;DHT22;28604;51.204;22.552;2023-07-31T12:30:39;33.10;49.50
42965;DHT22;28604;51.204;22.552;2023-07-31T12:33:12;33.10;49.30
42965;DHT22;28604;51.204;22.552;2023-07-31T12:35:42;33.00;49.10
42965;DHT22;28604;51.204;22.552;2023-07-31T12:38:09;33.00;49.80
42965;DHT22;28604;51.204;22.552;2023-07-31T12:40:39;32.90;50.10
42965;DHT22;28604;51.204;22.552;2023-07-31T12:43:07;32.80;50.70
42965;DHT22;28604;51.204;22.552;2023-07-31T12:45:34;32.80;50.80
42965;DHT22;28604;51.204;22.552;2023-07-31T12:48:00;32.70;49.60
42965;DHT22;28604;51.204;22.552;2023-07-31T12:50:27;32.70;50.00
42965;DHT22;28604;51.204;22.552;2023-07-31T12:52:54;32.60;50.10
42965;DHT22;28604;51.204;22.552;2023-07-31T12:55:21;32.60;50.20
42965;DHT22;28604;51.204;22.552;2023-07-31T12:57:47;32.60;49.50
42965;DHT22;28604;51.204;22.552;2023-07-31T13:00:14;32.50;50.20
42965;DHT22;28604;51.204;22.552;2023-07-31T13:02:40;32.40;50.60
42965;DHT22;28604;51.204;22.552;2023-07-31T13:05:06;32.40;51.10
42965;DHT22;28604;51.204;22.552;2023-07-31T13:07:32;32.40;51.00
42965;DHT22;28604;51.204;22.552;2023-07-31T13:09:58;32.50;50.90
42965;DHT22;28604;51.204;22.552;2023-07-31T13:12:24;32.60;50.90
42965;DHT22;28604;51.204;22.552;2023-07-31T13:14:51;32.60;50.20
42965;DHT22;28604;51.204;22.552;2023-07-31T13:17:17;32.60;51.60
42965;DHT22;28604;51.204;22.552;2023-07-31T13:19:43;32.60;51.30
42965;DHT22;28604;51.204;22.552;2023-07-31T13:22:09;32.50;51.20
42965;DHT22;28604;51.204;22.552;2023-07-31T13:24:36;32.30;51.10
42965;DHT22;28604;51.204;22.552;2023-07-31T13:27:02;32.10;51.80
42965;DHT22;28604;51.204;22.552;2023-07-31T13:29:28;32.00;52.00
42965;DHT22;28604;51.204;22.552;2023-07-31T13:31:55;31.90;52.10
42965;DHT22;28604;51.204;22.552;2023-07-31T13:34:21;31.80;51.80
42965;DHT22;28604;51.204;22.552;2023-07-31T13:36:47;31.70;52.10
42965;DHT22;28604;51.204;22.552;2023-07-31T13:39:13;31.70;51.40
42965;DHT22;28604;51.204;22.552;2023-07-31T13:41:39;31.50;51.00
42965;DHT22;28604;51.204;22.552;2023-07-31T13:44:05;31.40;50.60
42965;DHT22;28604;51.204;22.552;2023-07-31T13:46:31;31.30;51.00
42965;DHT22;28604;51.204;22.552;2023-07-31T13:48:58;31.30;50.50
42965;DHT22;28604;51.204;22.552;2023-07-31T13:51:25;31.30;51.10
42965;DHT22;28604;51.204;22.552;2023-07-31T13:53:53;31.10;51.10
42965;DHT22;28604;51.204;22.552;2023-07-31T13:56:19;31.00;52.10
42965;DHT22;28604;51.204;22.552;2023-07-31T13:58:45;30.90;52.30
42965;DHT22;28604;51.204;22.552;2023-07-31T14:01:11;30.80;52.40
42965;DHT22;28604;51.204;22.552;2023-07-31T14:03:36;30.90;52.90
42965;DHT22;28604;51.204;22.552;2023-07-31T14:06:03;30.90;52.00
42965;DHT22;28604;51.204;22.552;2023-07-31T14:08:28;30.80;51.40
42965;DHT22;28604;51.204;22.552;2023-07-31T14:10:55;30.70;51.00
42965;DHT22;28604;51.204;22.552;2023-07-31T14:13:21;30.60;51.50
42965;DHT22;28604;51.204;22.552;2023-07-31T14:15:47;30.60;52.60
42965;DHT22;28604;51.204;22.552;2023-07-31T14:18:13;30.40;52.60
42965;DHT22;28604;51.204;22.552;2023-07-31T14:20:39;30.40;52.90
42965;DHT22;28604;51.204;22.552;2023-07-31T14:23:05;30.50;52.90
42965;DHT22;28604;51.204;22.552;2023-07-31T14:25:31;30.50;52.50
42965;DHT22;28604;51.204;22.552;2023-07-31T14:27:57;30.40;51.90
42965;DHT22;28604;51.204;22.552;2023-07-31T14:30:23;30.40;51.40
42965;DHT22;28604;51.204;22.552;2023-07-31T14:32:49;30.40;51.30
42965;DHT22;28604;51.204;22.552;2023-07-31T14:35:15;30.30;51.40
42965;DHT22;28604;51.204;22.552;2023-07-31T14:37:44;30.30;51.80
42965;DHT22;28604;51.204;22.552;2023-07-31T14:40:12;30.20;51.80
42965;DHT22;28604;51.204;22.552;2023-07-31T14:42:38;30.10;52.20
42965;DHT22;28604;51.204;22.552;2023-07-31T14:45:06;30.00;52.50
42965;DHT22;28604;51.204;22.552;2023-07-31T14:47:32;29.90;52.70
42965;DHT22;28604;51.204;22.552;2023-07-31T14:49:59;29.80;52.70
42965;DHT22;28604;51.204;22.552;2023-07-31T14:52:25;29.70;52.80
42965;DHT22;28604;51.204;22.552;2023-07-31T14:54:52;29.60;52.70
42965;DHT22;28604;51.204;22.552;2023-07-31T14:57:18;29.60;52.80
42965;DHT22;28604;51.204;22.552;2023-07-31T14:59:45;29.60;52.40
42965;DHT22;28604;51.204;22.552;2023-07-31T15:02:12;29.60;52.40
42965;DHT22;28604;51.204;22.552;2023-07-31T15:04:38;29.60;51.80
42965;DHT22;28604;51.204;22.552;2023-07-31T15:07:04;29.60;51.10
42965;DHT22;28604;51.204;22.552;2023-07-31T15:09:30;29.60;51.50
42965;DHT22;28604;51.204;22.552;2023-07-31T15:11:56;29.70;51.80
42965;DHT22;28604;51.204;22.552;2023-07-31T15:14:24;29.70;51.00
42965;DHT22;28604;51.204;22.552;2023-07-31T15:16:50;29.70;50.10
42965;DHT22;28604;51.204;22.552;2023-07-31T15:19:16;29.70;50.00
42965;DHT22;28604;51.204;22.552;2023-07-31T15:21:42;29.60;50.60
42965;DHT22;28604;51.204;22.552;2023-07-31T15:24:09;29.60;50.40
42965;DHT22;28604;51.204;22.552;2023-07-31T15:26:36;29.50;50.40
42965;DHT22;28604;51.204;22.552;2023-07-31T15:29:07;29.40;50.50
42965;DHT22;28604;51.204;22.552;2023-07-31T15:31:44;29.40;50.90